sensor_id;sensor_type;location;lat;lon;timestamp;P1;durP1;ratioP1;P2;durP2;ratioP2
18659;SDS011;9459;50.254;19.014;2023-12-20T00:00:00;7.38;;;4.88;;
18659;SDS011;9459;50.254;19.014;2023-12-20T00:02:31;9.00;;;4.88;;
18659;SDS011;9459;50.254;19.014;2023-12-20T00:05:00;6.85;;;4.07;;
18659;SDS011;9459;50.254;19.014;2023-12-20T00:07:28;7.80;;;4.38;;
18659;SDS011;9459;50.254;19.014;2023-12-20T00:09:57;8.98;;;4.97;;
18659;SDS011;9459;50.254;19.014;2023-12-20T00:12:25;9.52;;;5.15;;
18659;SDS011;9459;50.254;19.014;2023-12-20T00:14:55;8.70;;;4.82;;
18659;SDS011;9459;50.254;19.014;2023-12-20T00:17:23;8.40;;;5.00;;
18659;SDS011;9459;50.254;19.014;2023-12-20T00:19:52;7.10;;;4.68;;
18659;SDS011;9459;50.254;19.014;2023-12-20T00:22:20;6.85;;;4.15;;
18659;SDS011;9459;50.254;19.014;2023-12-20T00:24:49;6.13;;;4.25;;
18659;SDS011;9459;50.254;19.014;2023-12-20T00:27:20;11.18;;;5.18;;
18659;SDS011;9459;50.254;19.014;2023-12-20T00:29:48;8.23;;;4.45;;
18659;SDS011;9459;50.254;19.014;2023-12-20T00:32:18;7.43;;;4.63;;
18659;SDS011;9459;50.254;19.014;2023-12-20T00:34:49;9.30;;;5.00;;
18659;SDS011;9459;50.254;19.014;2023-12-20T00:37:18;7.97;;;5.10;;
18659;SDS011;9459;50.254;19.014;2023-12-20T00:39:46;6.10;;;4.13;;
18659;SDS011;9459;50.254;19.014;2023-12-20T00:42:15;6.07;;;4.25;;
18659;SDS011;9459;50.254;19.014;2023-12-20T00:44:44;7.25;;;4.05;;
18659;SDS011;9459;50.254;19.014;2023-12-20T00:47:12;8.13;;;4.53;;
18659;SDS011;9459;50.254;19.014;2023-12-20T00:49:42;7.43;;;4.68;;
18659;SDS011;9459;50.254;19.014;2023-12-20T00:52:11;7.80;;;4.68;;
18659;SDS011;9459;50.254;19.014;2023-12-20T00:54:40;6.38;;;4.28;;
18659;SDS011;9459;50.254;19.014;2023-12-20T00:57:08;6.47;;;3.88;;
18659;SDS011;9459;50.254;19.014;2023-12-20T00:59:37;5.22;;;3.72;;
18659;SDS011;9459;50.254;19.014;2023-12-20T01:02:05;6.22;;;4.20;;
18659;SDS011;9459;50.254;19.014;2023-12-20T01:04:36;5.45;;;3.85;;
18659;SDS011;9459;50.254;19.014;2023-12-20T01:07:06;6.38;;;3.83;;
18659;SDS011;9459;50.254;19.014;2023-12-20T01:09:35;7.85;;;4.72;;
18659;SDS011;9459;50.254;19.014;2023-12-20T01:12:03;6.40;;;4.47;;
18659;SDS011;9459;50.254;19.014;2023-12-20T01:14:32;7.07;;;4.43;;
18659;SDS011;9459;50.254;19.014;2023-12-20T01:17:01;7.10;;;4.57;;
18659;SDS011;9459;50.254;19.014;2023-12-20T01:19:30;7.65;;;4.65;;
18659;SDS011;9459;50.254;19.014;2023-12-20T01:21:58;6.35;;;4.30;;
18659;SDS011;9459;50.254;19.014;2023-12-20T01:24:28;6.80;;;4.43;;
18659;SDS011;9459;50.254;19.014;2023-12-20T01:26:57;5.75;;;3.78;;
18659;SDS011;9459;50.254;19.014;2023-12-20T01:29:25;6.20;;;4.53;;
18659;SDS011;9459;50.254;19.014;2023-12-20T01:31:54;6.57;;;4.43;;
18659;SDS011;9459;50.254;19.014;2023-12-20T01:34:22;6.38;;;4.45;;
18659;SDS011;9459;50.254;19.014;2023-12-20T01:36:51;7.38;;;4.53;;
18659;SDS011;9459;50.254;19.014;2023-12-20T01:39:19;6.82;;;4.70;;
18659;SDS011;9459;50.254;19.014;2023-12-20T01:41:57;6.25;;;4.25;;
18659;SDS011;9459;50.254;19.014;2023-12-20T01:44:25;8.13;;;4.30;;
18659;SDS011;9459;50.254;19.014;2023-12-20T01:46:54;5.78;;;4.47;;
18659;SDS011;9459;50.254;19.014;2023-12-20T01:49:22;5.82;;;4.60;;
18659;SDS011;9459;50.254;19.014;2023-12-20T01:51:51;6.95;;;4.53;;
18659;SDS011;9459;50.254;19.014;2023-12-20T01:54:20;5.13;;;4.20;;
18659;SDS011;9459;50.254;19.014;2023-12-20T01:56:49;6.85;;;4.70;;
18659;SDS011;9459;50.254;19.014;2023-12-20T01:59:20;8.40;;;4.38;;
18659;SDS011;9459;50.254;19.014;2023-12-20T02:01:48;6.95;;;4.97;;
18659;SDS011;9459;50.254;19.014;2023-12-20T02:04:17;6.18;;;4.63;;
18659;SDS011;9459;50.254;19.014;2023-12-20T02:06:46;7.00;;;4.28;;
18659;SDS011;9459;50.254;19.014;2023-12-20T02:09:15;6.15;;;4.70;;
18659;SDS011;9459;50.254;19.014;2023-12-20T02:11:44;6.78;;;4.55;;
18659;SDS011;9459;50.254;19.014;2023-12-20T02:14:12;5.18;;;4.25;;
18659;SDS011;9459;50.254;19.014;2023-12-20T02:16:42;6.45;;;4.30;;
18659;SDS011;9459;50.254;19.014;2023-12-20T02:19:13;5.50;;;4.40;;
18659;SDS011;9459;50.254;19.014;2023-12-20T02:21:44;6.35;;;4.70;;
18659;SDS011;9459;50.254;19.014;2023-12-20T02:24:13;8.75;;;5.15;;
18659;SDS011;9459;50.254;19.014;2023-12-20T02:26:41;7.97;;;5.22;;
18659;SDS011;9459;50.254;19.014;2023-12-20T02:29:13;7.20;;;4.78;;
18659;SDS011;9459;50.254;19.014;2023-12-20T02:31:41;6.93;;;4.95;;
18659;SDS011;9459;50.254;19.014;2023-12-20T02:34:10;7.20;;;4.90;;
18659;SDS011;9459;50.254;19.014;2023-12-20T02:36:38;7.45;;;5.22;;
18659;SDS011;9459;50.254;19.014;2023-12-20T02:39:09;8.77;;;5.55;;
18659;SDS011;9459;50.254;19.014;2023-12-20T02:41:37;7.07;;;5.20;;
18659;SDS011;9459;50.254;19.014;2023-12-20T02:44:06;8.23;;;5.20;;
18659;SDS011;9459;50.254;19.014;2023-12-20T02:46:34;7.35;;;5.22;;
18659;SDS011;9459;50.254;19.014;2023-12-20T02:49:02;7.60;;;4.55;;
18659;SDS011;9459;50.254;19.014;2023-12-20T02:51:31;6.70;;;4.90;;
18659;SDS011;9459;50.254;19.014;2023-12-20T02:54:00;6.65;;;4.68;;
18659;SDS011;9459;50.254;19.014;2023-12-20T02:56:29;6.38;;;4.80;;
18659;SDS011;9459;50.254;19.014;2023-12-20T02:58:58;7.40;;;5.40;;
18659;SDS011;9459;50.254;19.014;2023-12-20T03:01:27;7.50;;;5.00;;
18659;SDS011;9459;50.254;19.014;2023-12-20T03:03:56;7.00;;;4.95;;
18659;SDS011;9459;50.254;19.014;2023-12-20T03:06:24;8.18;;;5.15;;
18659;SDS011;9459;50.254;19.014;2023-12-20T03:08:53;8.25;;;5.18;;
18659;SDS011;9459;50.254;19.014;2023-12-20T03:11:21;9.68;;;5.57;;
18659;SDS011;9459;50.254;19.014;2023-12-20T03:13:51;8.30;;;5.10;;
18659;SDS011;9459;50.254;19.014;2023-12-20T03:16:20;7.18;;;5.18;;
18659;SDS011;9459;50.254;19.014;2023-12-20T03:18:49;8.18;;;5.60;;
18659;SDS011;9459;50.254;19.014;2023-12-20T03:21:17;6.75;;;5.35;;
18659;SDS011;9459;50.254;19.014;2023-12-20T03:23:46;8.15;;;5.45;;
18659;SDS011;9459;50.254;19.014;2023-12-20T03:26:14;8.32;;;5.45;;
18659;SDS011;9459;50.254;19.014;2023-12-20T03:28:43;7.82;;;5.22;;
18659;SDS011;9459;50.254;19.014;2023-12-20T03:31:13;9.70;;;5.88;;
18659;SDS011;9459;50.254;19.014;2023-12-20T03:33:42;8.40;;;6.05;;
18659;SDS011;9459;50.254;19.014;2023-12-20T03:36:11;8.77;;;5.15;;
18659;SDS011;9459;50.254;19.014;2023-12-20T03:38:38;7.90;;;5.80;;
18659;SDS011;9459;50.254;19.014;2023-12-20T03:41:07;9.10;;;5.93;;
18659;SDS011;9459;50.254;19.014;2023-12-20T03:43:35;8.85;;;6.25;;
18659;SDS011;9459;50.254;19.014;2023-12-20T03:46:04;10.13;;;6.40;;
18659;SDS011;9459;50.254;19.014;2023-12-20T03:48:34;8.98;;;6.13;;
18659;SDS011;9459;50.254;19.014;2023-12-20T03:51:02;9.82;;;5.80;;
18659;SDS011;9459;50.254;19.014;2023-12-20T03:53:31;10.70;;;6.70;;
18659;SDS011;9459;50.254;19.014;2023-12-20T03:55:59;10.13;;;6.00;;
18659;SDS011;9459;50.254;19.014;2023-12-20T03:58:28;9.07;;;6.65;;
18659;SDS011;9459;50.254;19.014;2023-12-20T04:00:57;8.15;;;6.03;;
18659;SDS011;9459;50.254;19.014;2023-12-20T04:03:25;9.48;;;6.65;;
18659;SDS011;9459;50.254;19.014;2023-12-20T04:05:55;9.95;;;7.00;;
18659;SDS011;9459;50.254;19.014;2023-12-20T04:08:24;11.27;;;7.32;;
18659;SDS011;9459;50.254;19.014;2023-12-20T04:10:53;10.15;;;7.28;;
18659;SDS011;9459;50.254;19.014;2023-12-20T04:13:21;11.82;;;7.95;;
18659;SDS011;9459;50.254;19.014;2023-12-20T04:15:50;10.90;;;8.13;;
18659;SDS011;9459;50.254;19.014;2023-12-20T04:18:19;11.23;;;7.75;;
18659;SDS011;9459;50.254;19.014;2023-12-20T04:20:47;11.68;;;8.25;;
18659;SDS011;9459;50.254;19.014;2023-12-20T04:23:17;11.43;;;8.13;;
18659;SDS011;9459;50.254;19.014;2023-12-20T04:25:46;13.50;;;8.85;;
18659;SDS011;9459;50.254;19.014;2023-12-20T04:28:15;13.07;;;8.55;;
18659;SDS011;9459;50.254;19.014;2023-12-20T04:30:43;12.02;;;8.35;;
18659;SDS011;9459;50.254;19.014;2023-12-20T04:33:12;13.60;;;9.43;;
18659;SDS011;9459;50.254;19.014;2023-12-20T04:35:43;15.23;;;9.33;;
18659;SDS011;9459;50.254;19.014;2023-12-20T04:38:13;17.98;;;10.95;;
18659;SDS011;9459;50.254;19.014;2023-12-20T04:40:44;14.23;;;9.45;;
18659;SDS011;9459;50.254;19.014;2023-12-20T04:43:13;16.67;;;11.15;;
18659;SDS011;9459;50.254;19.014;2023-12-20T04:45:41;16.58;;;11.23;;
18659;SDS011;9459;50.254;19.014;2023-12-20T04:48:10;18.50;;;11.90;;
18659;SDS011;9459;50.254;19.014;2023-12-20T04:50:39;14.57;;;11.05;;
18659;SDS011;9459;50.254;19.014;2023-12-20T04:53:09;17.90;;;10.73;;
18659;SDS011;9459;50.254;19.014;2023-12-20T04:55:37;14.18;;;9.00;;
18659;SDS011;9459;50.254;19.014;2023-12-20T04:58:07;12.93;;;8.57;;
18659;SDS011;9459;50.254;19.014;2023-12-20T05:00:36;13.20;;;9.00;;
18659;SDS011;9459;50.254;19.014;2023-12-20T05:03:05;11.93;;;8.38;;
18659;SDS011;9459;50.254;19.014;2023-12-20T05:05:34;14.30;;;8.45;;
18659;SDS011;9459;50.254;19.014;2023-12-20T05:08:03;13.20;;;8.68;;
18659;SDS011;9459;50.254;19.014;2023-12-20T05:10:31;13.40;;;9.00;;
18659;SDS011;9459;50.254;19.014;2023-12-20T05:13:01;15.10;;;9.20;;
18659;SDS011;9459;50.254;19.014;2023-12-20T05:15:31;14.73;;;8.68;;
18659;SDS011;9459;50.254;19.014;2023-12-20T05:17:59;12.95;;;8.75;;
18659;SDS011;9459;50.254;19.014;2023-12-20T05:20:28;13.48;;;8.88;;
18659;SDS011;9459;50.254;19.014;2023-12-20T05:22:56;13.15;;;9.77;;
18659;SDS011;9459;50.254;19.014;2023-12-20T05:25:25;16.20;;;9.07;;
18659;SDS011;9459;50.254;19.014;2023-12-20T05:27:54;12.73;;;9.20;;
18659;SDS011;9459;50.254;19.014;2023-12-20T05:30:23;12.50;;;9.32;;
18659;SDS011;9459;50.254;19.014;2023-12-20T05:32:52;15.25;;;10.20;;
18659;SDS011;9459;50.254;19.014;2023-12-20T05:35:21;14.77;;;9.75;;
18659;SDS011;9459;50.254;19.014;2023-12-20T05:37:50;12.80;;;9.25;;
18659;SDS011;9459;50.254;19.014;2023-12-20T05:40:19;16.67;;;10.60;;
18659;SDS011;9459;50.254;19.014;2023-12-20T05:42:48;15.05;;;10.25;;
18659;SDS011;9459;50.254;19.014;2023-12-20T05:45:17;14.65;;;9.88;;
18659;SDS011;9459;50.254;19.014;2023-12-20T05:47:46;15.57;;;9.68;;
18659;SDS011;9459;50.254;19.014;2023-12-20T05:50:17;20.08;;;11.02;;
18659;SDS011;9459;50.254;19.014;2023-12-20T05:52:46;16.87;;;10.97;;
18659;SDS011;9459;50.254;19.014;2023-12-20T05:55:14;16.95;;;11.10;;
18659;SDS011;9459;50.254;19.014;2023-12-20T05:57:43;16.13;;;10.88;;
18659;SDS011;9459;50.254;19.014;2023-12-20T06:00:12;19.42;;;11.80;;
18659;SDS011;9459;50.254;19.014;2023-12-20T06:02:42;15.68;;;10.23;;
18659;SDS011;9459;50.254;19.014;2023-12-20T06:05:11;17.23;;;11.07;;
18659;SDS011;9459;50.254;19.014;2023-12-20T06:07:41;15.02;;;10.18;;
18659;SDS011;9459;50.254;19.014;2023-12-20T06:10:11;16.27;;;11.27;;
18659;SDS011;9459;50.254;19.014;2023-12-20T06:12:41;20.30;;;11.70;;
18659;SDS011;9459;50.254;19.014;2023-12-20T06:15:09;18.17;;;11.45;;
18659;SDS011;9459;50.254;19.014;2023-12-20T06:17:38;17.08;;;11.13;;
18659;SDS011;9459;50.254;19.014;2023-12-20T06:20:07;17.65;;;11.02;;
18659;SDS011;9459;50.254;19.014;2023-12-20T06:22:37;18.70;;;11.48;;
18659;SDS011;9459;50.254;19.014;2023-12-20T06:25:07;19.83;;;12.00;;
18659;SDS011;9459;50.254;19.014;2023-12-20T06:27:36;17.98;;;11.35;;
18659;SDS011;9459;50.254;19.014;2023-12-20T06:30:05;19.65;;;12.05;;
18659;SDS011;9459;50.254;19.014;2023-12-20T06:32:36;21.38;;;11.70;;
18659;SDS011;9459;50.254;19.014;2023-12-20T06:35:05;18.85;;;11.55;;
18659;SDS011;9459;50.254;19.014;2023-12-20T06:37:34;18.55;;;12.02;;
18659;SDS011;9459;50.254;19.014;2023-12-20T06:40:03;17.67;;;12.68;;
18659;SDS011;9459;50.254;19.014;2023-12-20T06:42:41;20.13;;;13.73;;
18659;SDS011;9459;50.254;19.014;2023-12-20T06:45:24;21.77;;;12.60;;
18659;SDS011;9459;50.254;19.014;2023-12-20T06:47:53;20.90;;;13.32;;
18659;SDS011;9459;50.254;19.014;2023-12-20T06:50:21;19.88;;;12.98;;
18659;SDS011;9459;50.254;19.014;2023-12-20T06:52:50;21.50;;;13.40;;
18659;SDS011;9459;50.254;19.014;2023-12-20T06:55:19;23.27;;;12.80;;
18659;SDS011;9459;50.254;19.014;2023-12-20T06:57:50;21.13;;;14.30;;
18659;SDS011;9459;50.254;19.014;2023-12-20T07:00:19;22.70;;;13.43;;
18659;SDS011;9459;50.254;19.014;2023-12-20T07:02:48;19.00;;;13.20;;
18659;SDS011;9459;50.254;19.014;2023-12-20T07:05:17;19.25;;;11.95;;
18659;SDS011;9459;50.254;19.014;2023-12-20T07:07:47;21.15;;;12.88;;
18659;SDS011;9459;50.254;19.014;2023-12-20T07:10:16;19.20;;;12.50;;
18659;SDS011;9459;50.254;19.014;2023-12-20T07:12:45;18.00;;;13.07;;
18659;SDS011;9459;50.254;19.014;2023-12-20T07:15:17;19.33;;;12.70;;
18659;SDS011;9459;50.254;19.014;2023-12-20T07:17:45;18.38;;;12.30;;
18659;SDS011;9459;50.254;19.014;2023-12-20T07:20:14;19.73;;;12.73;;
18659;SDS011;9459;50.254;19.014;2023-12-20T07:22:43;21.25;;;12.55;;
18659;SDS011;9459;50.254;19.014;2023-12-20T07:25:12;21.58;;;13.93;;
18659;SDS011;9459;50.254;19.014;2023-12-20T07:27:41;24.25;;;13.70;;
18659;SDS011;9459;50.254;19.014;2023-12-20T07:30:11;19.00;;;12.48;;
18659;SDS011;9459;50.254;19.014;2023-12-20T07:32:42;26.20;;;15.80;;
18659;SDS011;9459;50.254;19.014;2023-12-20T07:35:10;19.90;;;13.95;;
18659;SDS011;9459;50.254;19.014;2023-12-20T07:37:39;22.95;;;14.57;;
18659;SDS011;9459;50.254;19.014;2023-12-20T07:40:08;23.10;;;15.35;;
18659;SDS011;9459;50.254;19.014;2023-12-20T07:42:37;27.73;;;15.10;;
18659;SDS011;9459;50.254;19.014;2023-12-20T07:45:06;26.05;;;16.73;;
18659;SDS011;9459;50.254;19.014;2023-12-20T07:47:36;25.20;;;17.95;;
18659;SDS011;9459;50.254;19.014;2023-12-20T07:50:06;29.48;;;17.85;;
18659;SDS011;9459;50.254;19.014;2023-12-20T07:52:35;25.60;;;17.80;;
18659;SDS011;9459;50.254;19.014;2023-12-20T07:55:04;26.23;;;17.48;;
18659;SDS011;9459;50.254;19.014;2023-12-20T07:57:33;24.98;;;17.50;;
18659;SDS011;9459;50.254;19.014;2023-12-20T08:00:01;23.70;;;16.05;;
18659;SDS011;9459;50.254;19.014;2023-12-20T08:02:36;27.30;;;16.70;;
18659;SDS011;9459;50.254;19.014;2023-12-20T08:05:07;25.20;;;17.10;;
18659;SDS011;9459;50.254;19.014;2023-12-20T08:07:36;24.20;;;16.80;;
18659;SDS011;9459;50.254;19.014;2023-12-20T08:10:05;24.40;;;17.15;;
18659;SDS011;9459;50.254;19.014;2023-12-20T08:12:34;24.35;;;16.63;;
18659;SDS011;9459;50.254;19.014;2023-12-20T08:15:02;23.70;;;15.73;;
18659;SDS011;9459;50.254;19.014;2023-12-20T08:17:32;23.98;;;15.82;;
18659;SDS011;9459;50.254;19.014;2023-12-20T08:20:00;23.23;;;15.50;;
18659;SDS011;9459;50.254;19.014;2023-12-20T08:22:30;22.63;;;13.90;;
18659;SDS011;9459;50.254;19.014;2023-12-20T08:24:59;23.17;;;16.77;;
18659;SDS011;9459;50.254;19.014;2023-12-20T08:27:29;31.30;;;20.47;;
18659;SDS011;9459;50.254;19.014;2023-12-20T08:29:58;21.85;;;14.25;;
18659;SDS011;9459;50.254;19.014;2023-12-20T08:32:27;21.58;;;15.30;;
18659;SDS011;9459;50.254;19.014;2023-12-20T08:34:56;23.92;;;16.83;;
18659;SDS011;9459;50.254;19.014;2023-12-20T08:37:25;29.90;;;19.20;;
18659;SDS011;9459;50.254;19.014;2023-12-20T08:39:55;24.73;;;15.95;;
18659;SDS011;9459;50.254;19.014;2023-12-20T08:42:23;21.60;;;13.57;;
18659;SDS011;9459;50.254;19.014;2023-12-20T08:44:59;21.15;;;13.73;;
18659;SDS011;9459;50.254;19.014;2023-12-20T08:47:28;24.13;;;14.38;;
18659;SDS011;9459;50.254;19.014;2023-12-20T08:49:56;24.25;;;15.65;;
18659;SDS011;9459;50.254;19.014;2023-12-20T08:52:27;28.45;;;18.27;;
18659;SDS011;9459;50.254;19.014;2023-12-20T08:54:57;30.60;;;19.90;;
18659;SDS011;9459;50.254;19.014;2023-12-20T08:57:26;24.73;;;16.83;;
18659;SDS011;9459;50.254;19.014;2023-12-20T08:59:55;28.08;;;17.20;;
18659;SDS011;9459;50.254;19.014;2023-12-20T09:02:24;22.52;;;14.70;;
18659;SDS011;9459;50.254;19.014;2023-12-20T09:04:53;20.83;;;14.50;;
18659;SDS011;9459;50.254;19.014;2023-12-20T09:07:23;23.25;;;14.95;;
18659;SDS011;9459;50.254;19.014;2023-12-20T09:09:51;21.25;;;14.27;;
18659;SDS011;9459;50.254;19.014;2023-12-20T09:12:21;20.13;;;13.70;;
18659;SDS011;9459;50.254;19.014;2023-12-20T09:14:50;22.42;;;15.02;;
18659;SDS011;9459;50.254;19.014;2023-12-20T09:17:19;20.67;;;14.30;;
18659;SDS011;9459;50.254;19.014;2023-12-20T09:19:50;20.77;;;14.25;;
18659;SDS011;9459;50.254;19.014;2023-12-20T09:22:21;19.50;;;13.63;;
18659;SDS011;9459;50.254;19.014;2023-12-20T09:24:50;21.40;;;15.15;;
18659;SDS011;9459;50.254;19.014;2023-12-20T09:27:18;23.55;;;15.90;;
18659;SDS011;9459;50.254;19.014;2023-12-20T09:29:48;23.02;;;15.30;;
18659;SDS011;9459;50.254;19.014;2023-12-20T09:32:17;20.73;;;15.50;;
18659;SDS011;9459;50.254;19.014;2023-12-20T09:34:47;25.50;;;17.27;;
18659;SDS011;9459;50.254;19.014;2023-12-20T09:37:16;25.98;;;18.67;;
18659;SDS011;9459;50.254;19.014;2023-12-20T09:39:44;22.23;;;15.90;;
18659;SDS011;9459;50.254;19.014;2023-12-20T09:42:13;22.65;;;15.77;;
18659;SDS011;9459;50.254;19.014;2023-12-20T09:44:46;24.40;;;15.30;;
18659;SDS011;9459;50.254;19.014;2023-12-20T09:47:16;22.25;;;15.07;;
18659;SDS011;9459;50.254;19.014;2023-12-20T09:49:48;23.02;;;15.13;;
18659;SDS011;9459;50.254;19.014;2023-12-20T09:52:16;20.63;;;14.65;;
18659;SDS011;9459;50.254;19.014;2023-12-20T09:54:47;25.85;;;16.77;;
18659;SDS011;9459;50.254;19.014;2023-12-20T09:57:16;23.58;;;16.17;;
18659;SDS011;9459;50.254;19.014;2023-12-20T09:59:44;26.00;;;15.93;;
18659;SDS011;9459;50.254;19.014;2023-12-20T10:02:14;25.23;;;16.17;;
18659;SDS011;9459;50.254;19.014;2023-12-20T10:04:46;23.73;;;15.55;;
18659;SDS011;9459;50.254;19.014;2023-12-20T10:07:15;26.83;;;15.57;;
18659;SDS011;9459;50.254;19.014;2023-12-20T10:09:44;22.17;;;14.77;;
18659;SDS011;9459;50.254;19.014;2023-12-20T10:12:13;23.15;;;15.43;;
18659;SDS011;9459;50.254;19.014;2023-12-20T10:14:41;26.88;;;16.58;;
18659;SDS011;9459;50.254;19.014;2023-12-20T10:17:10;24.83;;;16.02;;
18659;SDS011;9459;50.254;19.014;2023-12-20T10:19:42;23.70;;;15.88;;
18659;SDS011;9459;50.254;19.014;2023-12-20T10:22:11;27.40;;;18.58;;
18659;SDS011;9459;50.254;19.014;2023-12-20T10:24:39;26.40;;;17.77;;
18659;SDS011;9459;50.254;19.014;2023-12-20T10:27:08;23.00;;;15.52;;
18659;SDS011;9459;50.254;19.014;2023-12-20T10:29:37;23.70;;;15.57;;
18659;SDS011;9459;50.254;19.014;2023-12-20T10:32:22;25.80;;;16.70;;
18659;SDS011;9459;50.254;19.014;2023-12-20T10:34:54;25.88;;;16.15;;
18659;SDS011;9459;50.254;19.014;2023-12-20T10:37:23;25.73;;;16.58;;
18659;SDS011;9459;50.254;19.014;2023-12-20T10:39:52;24.38;;;16.13;;
18659;SDS011;9459;50.254;19.014;2023-12-20T10:42:25;22.65;;;14.32;;
18659;SDS011;9459;50.254;19.014;2023-12-20T10:44:54;24.63;;;13.90;;
18659;SDS011;9459;50.254;19.014;2023-12-20T10:47:23;27.80;;;16.52;;
18659;SDS011;9459;50.254;19.014;2023-12-20T10:49:54;22.05;;;14.25;;
18659;SDS011;9459;50.254;19.014;2023-12-20T10:52:23;18.95;;;13.23;;
18659;SDS011;9459;50.254;19.014;2023-12-20T10:54:52;20.67;;;14.27;;
18659;SDS011;9459;50.254;19.014;2023-12-20T10:57:21;20.23;;;14.10;;
18659;SDS011;9459;50.254;19.014;2023-12-20T10:59:50;21.60;;;14.73;;
18659;SDS011;9459;50.254;19.014;2023-12-20T11:02:20;19.03;;;13.93;;
18659;SDS011;9459;50.254;19.014;2023-12-20T11:04:51;18.95;;;12.88;;
18659;SDS011;9459;50.254;19.014;2023-12-20T11:07:25;17.85;;;12.77;;
18659;SDS011;9459;50.254;19.014;2023-12-20T11:09:58;17.60;;;12.05;;
18659;SDS011;9459;50.254;19.014;2023-12-20T11:12:35;19.10;;;13.32;;
18659;SDS011;9459;50.254;19.014;2023-12-20T11:15:07;19.08;;;13.00;;
18659;SDS011;9459;50.254;19.014;2023-12-20T11:17:38;15.77;;;12.38;;
18659;SDS011;9459;50.254;19.014;2023-12-20T11:20:09;17.50;;;12.30;;
18659;SDS011;9459;50.254;19.014;2023-12-20T11:22:39;15.18;;;11.57;;
18659;SDS011;9459;50.254;19.014;2023-12-20T11:25:24;19.15;;;13.57;;
18659;SDS011;9459;50.254;19.014;2023-12-20T11:28:09;19.85;;;14.57;;
18659;SDS011;9459;50.254;19.014;2023-12-20T11:30:42;24.73;;;15.55;;
18659;SDS011;9459;50.254;19.014;2023-12-20T11:33:12;25.83;;;17.02;;
18659;SDS011;9459;50.254;19.014;2023-12-20T11:35:42;24.67;;;15.75;;
18659;SDS011;9459;50.254;19.014;2023-12-20T11:38:12;27.23;;;16.20;;
18659;SDS011;9459;50.254;19.014;2023-12-20T11:40:41;21.17;;;14.05;;
18659;SDS011;9459;50.254;19.014;2023-12-20T11:43:11;18.40;;;13.30;;
18659;SDS011;9459;50.254;19.014;2023-12-20T11:45:42;18.92;;;13.68;;
18659;SDS011;9459;50.254;19.014;2023-12-20T11:48:17;19.35;;;13.68;;
18659;SDS011;9459;50.254;19.014;2023-12-20T11:50:48;17.45;;;12.35;;
18659;SDS011;9459;50.254;19.014;2023-12-20T11:53:16;17.92;;;12.20;;
18659;SDS011;9459;50.254;19.014;2023-12-20T11:55:47;20.27;;;13.80;;
18659;SDS011;9459;50.254;19.014;2023-12-20T11:58:15;17.17;;;11.65;;
18659;SDS011;9459;50.254;19.014;2023-12-20T12:00:44;17.02;;;12.63;;
18659;SDS011;9459;50.254;19.014;2023-12-20T12:03:14;17.50;;;11.30;;
18659;SDS011;9459;50.254;19.014;2023-12-20T12:05:42;17.90;;;11.57;;
18659;SDS011;9459;50.254;19.014;2023-12-20T12:08:13;18.77;;;12.18;;
18659;SDS011;9459;50.254;19.014;2023-12-20T12:10:41;15.85;;;11.27;;
18659;SDS011;9459;50.254;19.014;2023-12-20T12:13:10;16.15;;;10.82;;
18659;SDS011;9459;50.254;19.014;2023-12-20T12:15:41;18.45;;;11.25;;
18659;SDS011;9459;50.254;19.014;2023-12-20T12:18:14;15.57;;;10.88;;
18659;SDS011;9459;50.254;19.014;2023-12-20T12:20:43;15.02;;;10.38;;
18659;SDS011;9459;50.254;19.014;2023-12-20T12:23:14;14.50;;;10.20;;
18659;SDS011;9459;50.254;19.014;2023-12-20T12:25:51;17.00;;;10.98;;
18659;SDS011;9459;50.254;19.014;2023-12-20T12:28:19;17.35;;;11.07;;
18659;SDS011;9459;50.254;19.014;2023-12-20T12:30:55;17.02;;;10.75;;
18659;SDS011;9459;50.254;19.014;2023-12-20T12:33:25;18.58;;;10.93;;
18659;SDS011;9459;50.254;19.014;2023-12-20T12:35:54;15.13;;;11.00;;
18659;SDS011;9459;50.254;19.014;2023-12-20T12:38:25;17.55;;;11.18;;
18659;SDS011;9459;50.254;19.014;2023-12-20T12:40:54;18.27;;;11.13;;
18659;SDS011;9459;50.254;19.014;2023-12-20T12:43:22;20.52;;;12.23;;
18659;SDS011;9459;50.254;19.014;2023-12-20T12:45:51;16.30;;;11.02;;
18659;SDS011;9459;50.254;19.014;2023-12-20T12:48:20;20.88;;;11.48;;
18659;SDS011;9459;50.254;19.014;2023-12-20T12:50:49;16.17;;;11.07;;
18659;SDS011;9459;50.254;19.014;2023-12-20T12:53:19;20.08;;;12.43;;
18659;SDS011;9459;50.254;19.014;2023-12-20T12:55:48;20.10;;;13.32;;
18659;SDS011;9459;50.254;19.014;2023-12-20T12:58:17;19.08;;;12.30;;
18659;SDS011;9459;50.254;19.014;2023-12-20T13:00:46;20.33;;;13.50;;
18659;SDS011;9459;50.254;19.014;2023-12-20T13:03:17;23.02;;;14.38;;
18659;SDS011;9459;50.254;19.014;2023-12-20T13:05:46;20.13;;;12.32;;
18659;SDS011;9459;50.254;19.014;2023-12-20T13:08:15;39.35;;;22.30;;
18659;SDS011;9459;50.254;19.014;2023-12-20T13:10:43;24.58;;;15.65;;
18659;SDS011;9459;50.254;19.014;2023-12-20T13:13:13;20.83;;;13.93;;
18659;SDS011;9459;50.254;19.014;2023-12-20T13:15:42;24.77;;;13.73;;
18659;SDS011;9459;50.254;19.014;2023-12-20T13:18:15;20.85;;;12.93;;
18659;SDS011;9459;50.254;19.014;2023-12-20T13:20:43;27.38;;;16.33;;
18659;SDS011;9459;50.254;19.014;2023-12-20T13:23:12;23.23;;;15.80;;
18659;SDS011;9459;50.254;19.014;2023-12-20T13:25:40;24.80;;;15.50;;
18659;SDS011;9459;50.254;19.014;2023-12-20T13:28:09;23.17;;;15.35;;
18659;SDS011;9459;50.254;19.014;2023-12-20T13:30:40;28.88;;;18.30;;
18659;SDS011;9459;50.254;19.014;2023-12-20T13:33:09;24.27;;;15.57;;
18659;SDS011;9459;50.254;19.014;2023-12-20T13:35:38;24.00;;;16.70;;
18659;SDS011;9459;50.254;19.014;2023-12-20T13:38:07;26.52;;;15.93;;
18659;SDS011;9459;50.254;19.014;2023-12-20T13:40:35;22.77;;;16.23;;
18659;SDS011;9459;50.254;19.014;2023-12-20T13:43:04;24.08;;;15.75;;
18659;SDS011;9459;50.254;19.014;2023-12-20T13:45:33;23.50;;;16.65;;
18659;SDS011;9459;50.254;19.014;2023-12-20T13:48:04;24.95;;;15.88;;
18659;SDS011;9459;50.254;19.014;2023-12-20T13:50:33;21.90;;;15.00;;
18659;SDS011;9459;50.254;19.014;2023-12-20T13:53:02;19.08;;;12.85;;
18659;SDS011;9459;50.254;19.014;2023-12-20T13:55:32;20.15;;;13.25;;
18659;SDS011;9459;50.254;19.014;2023-12-20T13:58:00;25.38;;;16.80;;
18659;SDS011;9459;50.254;19.014;2023-12-20T14:00:29;27.52;;;18.05;;
18659;SDS011;9459;50.254;19.014;2023-12-20T14:02:58;24.52;;;17.35;;
18659;SDS011;9459;50.254;19.014;2023-12-20T14:05:28;32.00;;;19.65;;
18659;SDS011;9459;50.254;19.014;2023-12-20T14:07:57;24.33;;;17.45;;
18659;SDS011;9459;50.254;19.014;2023-12-20T14:10:25;30.90;;;19.38;;
18659;SDS011;9459;50.254;19.014;2023-12-20T14:12:54;31.10;;;19.98;;
18659;SDS011;9459;50.254;19.014;2023-12-20T14:15:23;27.83;;;18.20;;
18659;SDS011;9459;50.254;19.014;2023-12-20T14:17:52;30.33;;;19.33;;
18659;SDS011;9459;50.254;19.014;2023-12-20T14:20:21;25.27;;;15.88;;
18659;SDS011;9459;50.254;19.014;2023-12-20T14:22:52;23.88;;;16.13;;
18659;SDS011;9459;50.254;19.014;2023-12-20T14:25:20;35.00;;;23.45;;
18659;SDS011;9459;50.254;19.014;2023-12-20T14:27:50;24.50;;;17.13;;
18659;SDS011;9459;50.254;19.014;2023-12-20T14:30:19;23.65;;;17.15;;
18659;SDS011;9459;50.254;19.014;2023-12-20T14:32:49;23.98;;;15.57;;
18659;SDS011;9459;50.254;19.014;2023-12-20T14:35:19;27.70;;;17.27;;
18659;SDS011;9459;50.254;19.014;2023-12-20T14:37:48;27.00;;;17.48;;
18659;SDS011;9459;50.254;19.014;2023-12-20T14:40:18;37.03;;;21.30;;
18659;SDS011;9459;50.254;19.014;2023-12-20T14:42:47;37.03;;;22.90;;